Time;durP1;ratioP1;P1;durP2;ratioP2;P2;SDS_P1;SDS_P2;PMS_P1;PMS_P2;Temp;Humidity;BMP_temperature;BMP_pressure;BME280_temperature;BME280_humidity;BME280_pressure;Samples;Min_cycle;Max_cycle;Signal;HPM_P1;HPM_P2
2023/10/19 00:02:54;;;;;;;7.03;3.83;;;;;;;22.67;100.00;101219.28;20950829;28;20446;-77
2023/10/19 00:13:19;;;;;;;8.10;3.85;;;;;;;22.65;100.00;101218.44;20948197;28;20404;-77
2023/10/19 00:23:47;;;;;;;9.27;4.30;;;;;;;22.71;100.00;101217.41;20952910;28;20044;-76
2023/10/19 00:34:11;;;;;;;9.55;4.18;;;;;;;22.69;100.00;101209.38;20964017;28;20055;-76
2023/10/19 00:44:42;;;;;;;8.40;4.30;;;;;;;22.60;100.00;101202.44;20977455;28;20048;-76
2023/10/19 00:55:05;;;;;;;8.57;3.90;;;;;;;22.63;100.00;101206.84;20976233;28;20049;-77
2023/10/19 01:05:35;;;;;;;9.35;4.53;;;;;;;22.70;100.00;101212.94;20961884;28;20053;-77
2023/10/19 01:15:58;;;;;;;6.32;4.00;;;;;;;22.59;100.00;101189.00;20975185;28;20063;-76
2023/10/19 01:26:25;;;;;;;8.98;3.95;;;;;;;22.53;100.00;101190.06;20973308;28;20075;-76
2023/10/19 01:36:50;;;;;;;7.38;4.00;;;;;;;22.50;100.00;101191.97;20969727;28;20045;-76
2023/10/19 01:47:15;;;;;;;7.40;4.15;;;;;;;22.52;100.00;101193.66;20928895;28;20076;-75
2023/10/19 01:57:39;;;;;;;10.63;4.32;;;;;;;22.49;100.00;101201.84;20970981;28;20060;-76
2023/10/19 02:08:04;;;;;;;7.93;4.00;;;;;;;22.54;100.00;101199.00;20970921;28;20045;-76
2023/10/19 02:18:26;;;;;;;9.90;3.97;;;;;;;22.53;100.00;101199.94;20954680;28;20052;-76
2023/10/19 02:28:51;;;;;;;8.13;4.47;;;;;;;22.51;100.00;101204.50;20981635;28;20106;-76
2023/10/19 02:39:15;;;;;;;6.47;4.00;;;;;;;22.49;100.00;101206.34;20940386;28;20430;-78
2023/10/19 02:49:39;;;;;;;6.22;3.70;;;;;;;22.47;100.00;101209.06;20966612;28;20049;-76
2023/10/19 03:00:07;;;;;;;9.15;4.00;;;;;;;22.49;100.00;101207.22;20942689;28;20044;-76
2023/10/19 03:10:41;;;;;;;;;;;;;;;22.46;100.00;101201.91;20965775;28;20076;-75
2023/10/19 03:21:05;;;;;;;8.02;4.15;;;;;;;22.40;100.00;101199.38;20963946;28;20547;-75
2023/10/19 03:31:29;;;;;;;12.18;5.18;;;;;;;22.39;100.00;101194.91;20945696;28;20117;-75
2023/10/19 03:41:52;;;;;;;10.32;4.43;;;;;;;22.37;100.00;101190.50;20959914;28;20101;-75
2023/10/19 03:52:23;;;;;;;8.25;4.13;;;;;;;22.37;100.00;101201.28;20960015;28;20468;-75
2023/10/19 04:02:46;;;;;;;8.45;4.10;;;;;;;22.36;100.00;101200.38;20957026;28;20047;-76
2023/10/19 04:13:10;;;;;;;7.95;4.25;;;;;;;22.37;100.00;101199.47;20942117;28;20055;-74
2023/10/19 04:23:36;;;;;;;9.15;3.90;;;;;;;22.35;100.00;101195.03;20948963;28;20416;-76
2023/10/19 04:34:06;;;;;;;8.15;4.40;;;;;;;22.18;100.00;101192.78;20953555;28;20041;-75
2023/10/19 04:44:30;;;;;;;8.27;4.00;;;;;;;22.17;100.00;101199.09;20920886;28;20045;-75
2023/10/19 04:54:55;;;;;;;12.23;4.30;;;;;;;22.24;100.00;101204.28;20950407;28;20110;-74
2023/10/19 05:05:18;;;;;;;9.45;4.00;;;;;;;22.26;100.00;101209.59;20941889;28;20044;-75
2023/10/19 05:15:43;;;;;;;9.70;3.45;;;;;;;22.44;100.00;101211.84;20938543;28;20363;-75
2023/10/19 05:26:07;;;;;;;11.88;4.00;;;;;;;22.61;100.00;101219.47;20956154;28;20048;-75
2023/10/19 05:36:32;;;;;;;9.20;3.38;;;;;;;22.66;100.00;101237.25;20929547;28;20132;-75
2023/10/19 05:46:56;;;;;;;8.30;3.05;;;;;;;22.88;100.00;101252.88;20948424;28;20445;-75
2023/10/19 05:57:22;;;;;;;6.05;2.80;;;;;;;23.07;100.00;101255.94;20944803;28;20045;-75
2023/10/19 06:07:45;;;;;;;5.15;2.33;;;;;;;23.08;100.00;101268.47;20933911;28;20577;-75
2023/10/19 06:18:10;;;;;;;6.25;3.00;;;;;;;23.12;100.00;101270.16;20884190;28;20567;-75
2023/10/19 06:28:38;;;;;;;6.05;2.92;;;;;;;23.14;100.00;101282.66;20918688;28;20049;-77
2023/10/19 06:39:05;;;;;;;5.73;2.70;;;;;;;23.41;100.00;101286.38;20951770;28;20053;-76
2023/10/19 06:49:30;;;;;;;4.82;2.30;;;;;;;23.72;100.00;101298.06;20911597;28;20048;-76
2023/10/19 06:59:54;;;;;;;9.75;3.13;;;;;;;23.89;100.00;101312.84;20932348;28;20051;-76
2023/10/19 07:10:17;;;;;;;6.63;3.33;;;;;;;24.05;100.00;101312.31;20893291;28;20061;-75
2023/10/19 07:20:42;;;;;;;7.32;3.10;;;;;;;24.27;100.00;101314.38;20918990;28;20051;-75
2023/10/19 07:31:06;;;;;;;5.28;2.47;;;;;;;24.40;100.00;101315.75;20924060;28;20053;-74
2023/10/19 07:41:36;;;;;;;5.95;2.45;;;;;;;24.61;100.00;101321.31;20964861;28;20084;-74
2023/10/19 07:51:59;;;;;;;5.95;2.35;;;;;;;24.78;100.00;101315.34;20920195;28;20176;-74
2023/10/19 08:02:24;;;;;;;6.28;2.63;;;;;;;25.00;100.00;101326.34;20896542;28;20049;-75
2023/10/19 08:12:48;;;;;;;7.05;2.17;;;;;;;25.31;100.00;101345.94;20868177;28;20045;-75
2023/10/19 08:23:16;;;;;;;7.20;2.70;;;;;;;25.86;100.00;101341.22;20955842;28;20060;-75
2023/10/19 08:33:41;;;;;;;1.80;1.30;;;;;;;27.59;100.00;101336.66;21019156;28;20056;-74
2023/10/19 08:44:10;;;;;;;10.80;3.00;;;;;;;28.11;100.00;101337.81;20932545;28;20095;-75
2023/10/19 08:54:33;;;;;;;4.32;1.60;;;;;;;27.73;100.00;101334.19;20956379;28;20068;-75
2023/10/19 09:04:59;;;;;;;7.05;2.00;;;;;;;26.92;98.82;101328.78;20883360;28;20532;-75
2023/10/19 09:15:26;;;;;;;3.10;1.77;;;;;;;26.65;97.12;101321.78;20942703;28;20057;-75
2023/10/19 09:25:57;;;;;;;8.17;2.63;;;;;;;26.88;99.32;101323.53;20975391;28;20080;-72
2023/10/19 09:36:22;;;;;;;5.88;2.17;;;;;;;27.12;100.00;101317.06;20931369;28;20090;-74
2023/10/19 09:46:48;;;;;;;6.07;2.03;;;;;;;27.69;89.44;101315.41;20941687;28;20056;-75
2023/10/19 09:57:16;;;;;;;4.95;2.30;;;;;;;28.14;79.99;101299.69;20962463;28;20055;-75
2023/10/19 10:07:40;;;;;;;4.35;2.42;;;;;;;28.26;75.01;101292.78;20936800;28;20049;-75
2023/10/19 10:18:14;;;;;;;5.30;1.90;;;;;;;28.06;74.82;101282.84;20943613;28;20060;-75
2023/10/19 10:28:38;;;;;;;4.55;1.98;;;;;;;27.93;73.77;101281.69;20892530;28;20572;-74
2023/10/19 10:39:06;;;;;;;4.40;2.40;;;;;;;27.73;72.46;101284.47;20914943;28;20492;-75
2023/10/19 10:49:30;;;;;;;5.47;2.22;;;;;;;27.71;71.51;101267.38;20969040;28;20076;-75
2023/10/19 11:00:15;;;;;;;5.25;2.58;;;;;;;27.45;70.50;101249.56;20947979;28;20136;-75
2023/10/19 11:10:39;;;;;;;5.45;2.85;;;;;;;27.25;71.75;101252.31;20969455;28;20056;-75
2023/10/19 11:21:05;;;;;;;5.97;3.17;;;;;;;27.34;71.19;101246.47;20961181;28;20087;-74
2023/10/19 11:31:37;;;;;;;7.55;3.50;;;;;;;27.14;70.71;101239.25;20929228;28;20529;-75
2023/10/19 11:42:00;;;;;;;8.23;3.58;;;;;;;26.38;75.81;101230.88;20938930;28;20045;-75
2023/10/19 11:52:24;;;;;;;5.78;3.53;;;;;;;25.78;79.04;101232.41;20926845;28;20060;-75
2023/10/19 12:02:46;;;;;;;4.97;3.75;;;;;;;25.94;80.16;101228.13;20949592;28;20049;-75
2023/10/19 12:13:10;;;;;;;7.05;3.50;;;;;;;26.12;79.51;101213.00;20964287;28;20805;-74
2023/10/19 12:23:33;;;;;;;3.75;2.83;;;;;;;26.12;82.77;101216.53;20973643;28;20120;-75
2023/10/19 12:33:58;;;;;;;5.63;3.20;;;;;;;26.00;84.11;101222.47;20966544;28;20063;-75
2023/10/19 12:44:22;;;;;;;5.65;2.47;;;;;;;25.84;87.11;101225.88;20974553;28;20056;-75
2023/10/19 12:54:51;;;;;;;4.80;2.35;;;;;;;25.84;88.79;101215.03;21041185;28;20048;-74
2023/10/19 13:05:16;;;;;;;5.70;2.38;;;;;;;25.72;90.90;101220.00;20984975;28;20155;-75
2023/10/19 13:15:41;;;;;;;6.32;2.10;;;;;;;25.69;91.35;101217.41;20933277;28;20060;-75
2023/10/19 13:26:16;;;;;;;4.22;2.13;;;;;;;25.59;91.42;101212.44;20943154;28;20101;-75
2023/10/19 13:36:40;;;;;;;6.25;2.30;;;;;;;25.64;91.86;101202.31;20956419;28;20143;-75
2023/10/19 13:47:04;;;;;;;5.80;2.00;;;;;;;25.66;92.25;101200.44;20993349;28;20049;-75
2023/10/19 13:57:29;;;;;;;3.78;1.70;;;;;;;25.65;92.95;101204.09;20920577;28;20053;-75
2023/10/19 14:07:51;;;;;;;3.78;1.90;;;;;;;25.55;92.56;101191.81;20921047;28;20049;-74
2023/10/19 14:18:16;;;;;;;3.08;1.73;;;;;;;25.18;93.57;101193.25;20883274;28;20049;-75
2023/10/19 14:28:40;;;;;;;4.80;1.83;;;;;;;24.77;97.24;101186.63;20888652;28;20049;-75
2023/10/19 14:39:09;;;;;;;7.65;2.53;;;;;;;24.81;97.60;101187.44;20929768;28;20378;-75
2023/10/19 14:49:31;;;;;;;5.82;1.92;;;;;;;24.66;99.04;101183.44;20887491;28;20048;-75
2023/10/19 14:59:55;;;;;;;2.33;1.60;;;;;;;24.67;98.92;101178.94;20943169;28;20048;-75
2023/10/19 15:10:19;;;;;;;7.22;3.17;;;;;;;24.46;100.00;101180.56;20962016;28;20103;-74
2023/10/19 15:20:43;;;;;;;4.53;1.83;;;;;;;24.32;100.00;101183.75;20897516;28;20440;-75
2023/10/19 15:31:07;;;;;;;4.07;1.55;;;;;;;24.24;100.00;101185.81;20884717;28;20052;-75
2023/10/19 15:41:32;;;;;;;5.25;1.67;;;;;;;24.09;100.00;101181.78;20974745;28;20497;-74
2023/10/19 15:51:55;;;;;;;3.45;1.80;;;;;;;23.91;100.00;101182.41;20898550;28;20052;-75
2023/10/19 16:02:19;;;;;;;5.68;2.28;;;;;;;23.84;100.00;101200.59;20972548;28;20048;-75
2023/10/19 16:12:43;;;;;;;4.00;1.90;;;;;;;23.74;100.00;101214.44;20929985;28;20057;-75
2023/10/19 16:23:07;;;;;;;5.38;1.83;;;;;;;23.74;100.00;101219.81;20930906;28;20135;-73
2023/10/19 16:33:30;;;;;;;4.90;1.80;;;;;;;23.80;100.00;101217.81;20935062;28;20551;-75
2023/10/19 16:43:54;;;;;;;4.45;1.60;;;;;;;23.69;100.00;101224.47;20901915;28;20496;-75
2023/10/19 16:54:17;;;;;;;3.55;1.92;;;;;;;23.51;100.00;101219.63;20910012;28;20061;-75
2023/10/19 17:04:41;;;;;;;5.95;2.40;;;;;;;23.31;100.00;101237.25;20907547;28;20052;-74
2023/10/19 17:15:04;;;;;;;7.60;2.38;;;;;;;23.07;100.00;101237.06;20951697;28;20098;-75
2023/10/19 17:25:30;;;;;;;6.55;2.60;;;;;;;23.01;100.00;101248.91;20953086;28;20056;-74
2023/10/19 17:35:53;;;;;;;6.72;2.83;;;;;;;22.85;100.00;101256.50;20915158;28;20055;-74
2023/10/19 17:46:18;;;;;;;7.05;2.63;;;;;;;22.71;100.00;101250.56;20932655;28;20049;-74
2023/10/19 17:56:41;;;;;;;7.40;2.40;;;;;;;22.53;100.00;101260.03;20966011;28;20059;-73
2023/10/19 18:07:07;;;;;;;3.80;2.00;;;;;;;22.39;100.00;101261.28;20912645;28;20048;-74
2023/10/19 18:17:30;;;;;;;7.40;2.47;;;;;;;22.21;100.00;101268.03;20953443;28;20048;-74
2023/10/19 18:27:55;;;;;;;3.17;2.00;;;;;;;22.31;100.00;101282.16;20908025;28;20044;-74
2023/10/19 18:38:17;;;;;;;4.75;2.60;;;;;;;22.40;100.00;101274.72;20924670;28;20409;-74
2023/10/19 18:48:41;;;;;;;4.55;2.25;;;;;;;22.15;100.00;101277.13;20930119;28;20175;-74
2023/10/19 18:59:04;;;;;;;4.55;2.15;;;;;;;22.35;100.00;101275.75;20931561;28;20070;-73
2023/10/19 19:09:45;;;;;;;6.10;2.58;;;;;;;21.95;100.00;101292.81;21043558;27;20878;-72
2023/10/19 19:20:11;;;;;;;3.55;2.10;;;;;;;22.06;100.00;101295.25;21062824;28;20067;-73
2023/10/19 19:30:36;;;;;;;4.72;2.30;;;;;;;22.16;100.00;101283.38;20993797;27;20205;-75
2023/10/19 19:40:59;;;;;;;5.45;2.17;;;;;;;22.15;100.00;101274.44;20996869;28;20056;-76
2023/10/19 19:51:23;;;;;;;5.55;2.05;;;;;;;22.11;100.00;101283.50;20961042;28;20126;-75
2023/10/19 20:01:46;;;;;;;6.43;2.22;;;;;;;22.05;100.00;101278.28;20935158;28;20066;-75
2023/10/19 20:12:11;;;;;;;4.65;2.35;;;;;;;22.00;100.00;101271.22;21013408;28;20131;-75
2023/10/19 20:22:34;;;;;;;5.63;2.20;;;;;;;21.75;100.00;101285.19;21009107;28;20099;-75
2023/10/19 20:32:58;;;;;;;5.63;2.78;;;;;;;21.66;100.00;101297.94;20969479;28;20132;-75
2023/10/19 20:43:21;;;;;;;8.73;2.85;;;;;;;21.42;100.00;101285.91;20946988;28;20143;-74
2023/10/19 20:53:45;;;;;;;4.35;2.42;;;;;;;21.18;100.00;101286.41;20958369;28;20041;-75
2023/10/19 21:04:08;;;;;;;3.83;2.40;;;;;;;21.03;100.00;101280.38;20934924;28;20052;-74
2023/10/19 21:14:32;;;;;;;5.20;2.80;;;;;;;20.94;100.00;101282.34;21001715;28;20128;-74
2023/10/19 21:24:55;;;;;;;4.75;2.30;;;;;;;20.83;100.00;101282.53;20995112;28;20071;-75
2023/10/19 21:35:21;;;;;;;5.50;2.55;;;;;;;20.69;100.00;101288.16;20983623;28;20059;-74
2023/10/19 21:45:44;;;;;;;5.68;3.03;;;;;;;20.60;100.00;101288.34;20983440;28;20052;-75
2023/10/19 21:56:08;;;;;;;4.47;2.83;;;;;;;20.48;100.00;101284.97;21009135;28;20093;-75
2023/10/19 22:06:31;;;;;;;4.93;3.42;;;;;;;20.37;100.00;101289.59;20976564;28;20106;-74
2023/10/19 22:16:55;;;;;;;5.70;3.05;;;;;;;20.30;100.00;101288.78;20960973;28;20379;-75
2023/10/19 22:27:18;;;;;;;5.90;3.35;;;;;;;20.10;100.00;101290.88;20967561;28;20053;-74
2023/10/19 22:37:42;;;;;;;6.00;4.03;;;;;;;19.99;100.00;101288.38;20995262;28;20040;-74
2023/10/19 22:48:06;;;;;;;6.90;3.75;;;;;;;19.83;100.00;101290.38;20983696;28;20079;-74
2023/10/19 22:58:31;;;;;;;6.43;4.03;;;;;;;19.82;100.00;101285.91;20996049;28;20056;-74
2023/10/19 23:08:55;;;;;;;8.45;4.03;;;;;;;19.58;100.00;101286.25;20941471;28;20062;-74
2023/10/19 23:19:23;;;;;;;7.82;4.35;;;;;;;19.61;100.00;101288.03;20955946;28;20128;-75
2023/10/19 23:29:46;;;;;;;7.40;3.95;;;;;;;19.43;100.00;101279.25;20953062;28;20054;-74
2023/10/19 23:40:13;;;;;;;6.38;3.60;;;;;;;19.33;100.00;101271.38;20911342;28;20056;-73
2023/10/19 23:50:36;;;;;;;5.72;4.30;;;;;;;19.33;100.00;101256.19;20947900;28;20056;-73
